createdAt,value
2022-11-27T00:01:46.530Z,4.20
2022-11-27T07:03:34.416Z,2.70
2022-11-27T07:06:03.270Z,2.80
2022-11-27T07:08:31.769Z,2.80
2022-11-27T07:11:03.288Z,2.80
2022-11-27T07:13:31.747Z,2.80
2022-11-27T07:16:02.229Z,2.80
2022-11-27T07:18:31.930Z,2.90
2022-11-27T07:21:01.825Z,2.90
2022-11-27T07:23:30.632Z,2.90
2022-11-27T07:25:59.591Z,3.00
2022-11-27T07:28:28.454Z,3.10
2022-11-27T07:30:57.185Z,3.10
2022-11-27T07:33:25.989Z,3.10
2022-11-27T07:35:59.609Z,3.20
2022-11-27T07:38:29.374Z,3.10
2022-11-27T07:41:00.441Z,3.20
2022-11-27T07:43:29.670Z,3.20
2022-11-27T07:45:58.507Z,3.30
2022-11-27T07:48:27.112Z,3.30
2022-11-27T07:50:55.770Z,3.30
2022-11-27T07:53:24.154Z,3.30
2022-11-27T07:55:54.156Z,3.40
2022-11-27T07:58:22.465Z,3.50
2022-11-27T08:00:51.186Z,3.40
2022-11-27T08:03:19.589Z,3.50
2022-11-27T08:05:47.935Z,3.50
2022-11-27T08:08:16.545Z,3.50
2022-11-27T08:10:45.187Z,3.60
2022-11-27T08:13:15.110Z,3.60
2022-11-27T08:15:43.591Z,3.70
2022-11-27T08:18:12.251Z,3.80
2022-11-27T08:20:40.618Z,3.80
2022-11-27T08:23:08.890Z,3.80
2022-11-27T08:25:39.366Z,3.90
2022-11-27T08:28:08.020Z,3.90
2022-11-27T08:30:37.927Z,4.00
2022-11-27T08:33:06.089Z,4.00
2022-11-27T08:35:35.055Z,4.10
2022-11-27T08:38:04.018Z,4.10
2022-11-27T08:40:32.490Z,4.20
2022-11-27T08:43:00.970Z,4.30
2022-11-27T08:45:29.303Z,4.30
2022-11-27T08:48:00.220Z,4.30
2022-11-27T08:50:28.558Z,4.30
2022-11-27T08:52:57.130Z,4.50
2022-11-27T08:55:25.456Z,4.50
2022-11-27T08:57:54.088Z,4.50
2022-11-27T09:00:27.776Z,4.50
2022-11-27T09:02:56.729Z,4.50
2022-11-27T09:05:26.505Z,4.50
2022-11-27T09:07:54.996Z,4.50
2022-11-27T09:10:23.785Z,4.60
2022-11-27T09:12:52.221Z,4.70
2022-11-27T09:15:20.689Z,4.70
2022-11-27T09:17:49.027Z,4.80
2022-11-27T09:20:17.674Z,4.90
2022-11-27T09:22:47.889Z,4.90
2022-11-27T09:25:16.373Z,4.90
2022-11-27T09:27:45.167Z,5.00
2022-11-27T09:30:14.669Z,5.00
2022-11-27T09:32:42.911Z,5.10
2022-11-27T09:35:11.313Z,5.20
2022-11-27T09:37:39.626Z,5.30
2022-11-27T09:40:11.570Z,5.40
2022-11-27T09:42:42.299Z,5.40
2022-11-27T09:45:15.114Z,5.60
2022-11-27T09:47:45.659Z,5.70
2022-11-27T09:50:15.751Z,5.80
2022-11-27T09:52:45.809Z,5.90
2022-11-27T09:55:18.939Z,5.90
2022-11-27T09:57:50.777Z,6.00
2022-11-27T10:00:20.632Z,6.10
2022-11-27T10:02:49.831Z,6.10
2022-11-27T10:05:20.919Z,6.10
2022-11-27T10:08:03.309Z,6.10
2022-11-27T10:10:40.851Z,6.10
2022-11-27T10:13:15.735Z,6.20
2022-11-27T10:15:50.615Z,6.20
2022-11-27T10:18:23.591Z,6.30
2022-11-27T10:20:54.129Z,6.30
2022-11-27T10:23:28.855Z,6.40
2022-11-27T10:26:01.537Z,6.50
2022-11-27T10:28:33.976Z,6.60
2022-11-27T10:31:03.990Z,6.60
2022-11-27T10:33:38.302Z,6.60
2022-11-27T10:36:11.450Z,6.70
2022-11-27T10:38:41.177Z,6.70
2022-11-27T10:41:28.466Z,6.70
2022-11-27T10:44:23.255Z,6.80
2022-11-27T10:46:52.695Z,6.90
2022-11-27T10:49:21.982Z,6.90
2022-11-27T10:51:50.505Z,7.00
2022-11-27T10:54:23.459Z,7.10
2022-11-27T10:57:03.260Z,7.20
2022-11-27T10:59:35.090Z,7.40
2022-11-27T11:02:06.032Z,7.40
2022-11-27T11:04:38.427Z,7.40
2022-11-27T11:07:23.370Z,7.50
2022-11-27T11:09:51.589Z,7.50
2022-11-27T11:12:22.642Z,7.50
2022-11-27T11:14:54.287Z,7.60
2022-11-27T11:17:27.171Z,7.60
2022-11-27T11:19:56.051Z,7.70
2022-11-27T11:22:25.342Z,7.60
2022-11-27T11:24:54.788Z,7.50
2022-11-27T11:27:26.948Z,7.50
2022-11-27T11:29:56.365Z,7.60
2022-11-27T11:32:26.289Z,7.70
2022-11-27T11:35:00.614Z,7.80
2022-11-27T11:37:31.421Z,7.90
2022-11-27T11:40:01.338Z,7.90
2022-11-27T11:42:32.058Z,8.00
2022-11-27T11:45:07.106Z,8.00
2022-11-27T11:47:37.501Z,8.00
2022-11-27T11:50:06.262Z,8.00
2022-11-27T11:52:46.455Z,8.00
2022-11-27T11:55:18.613Z,8.00
2022-11-27T11:57:59.615Z,8.00
2022-11-27T12:00:39.992Z,8.00
2022-11-27T12:03:37.006Z,8.00
2022-11-27T12:06:16.979Z,7.90
2022-11-27T12:08:52.790Z,7.90
2022-11-27T12:11:23.729Z,8.00
2022-11-27T12:14:01.039Z,8.00
2022-11-27T12:16:37.734Z,8.00
2022-11-27T12:19:15.916Z,8.00
2022-11-27T12:21:48.964Z,8.00
2022-11-27T12:24:22.485Z,8.10
2022-11-27T12:26:57.869Z,8.20
2022-11-27T12:29:45.015Z,8.20
2022-11-27T12:32:21.970Z,8.20
2022-11-27T12:34:55.435Z,8.20
2022-11-27T12:37:35.143Z,8.30
2022-11-27T12:40:10.695Z,8.30
2022-11-27T12:42:41.654Z,8.30
2022-11-27T12:45:16.370Z,8.20
2022-11-27T12:47:47.003Z,8.30
2022-11-27T12:50:19.406Z,8.20
2022-11-27T12:52:50.379Z,8.20
2022-11-27T12:55:21.662Z,8.20
2022-11-27T12:57:51.739Z,8.20
2022-11-27T13:00:23.276Z,8.20
2022-11-27T13:02:58.028Z,8.20
2022-11-27T13:05:28.378Z,8.10
2022-11-27T13:07:58.113Z,8.00
2022-11-27T13:10:32.209Z,8.10
2022-11-27T13:13:04.368Z,8.10
2022-11-27T13:15:36.708Z,8.10
2022-11-27T13:18:08.078Z,8.10
2022-11-27T13:20:39.737Z,8.10
2022-11-27T13:23:08.220Z,8.10
2022-11-27T13:25:41.329Z,8.10
2022-11-27T13:28:10.619Z,8.20
2022-11-27T13:30:40.525Z,8.20
2022-11-27T13:33:08.850Z,8.20
2022-11-27T13:35:42.932Z,8.20
2022-11-27T13:38:13.630Z,8.20
2022-11-27T13:40:43.759Z,8.20
2022-11-27T13:43:24.128Z,8.20
2022-11-27T13:46:01.880Z,8.30
2022-11-27T13:48:33.489Z,8.30
2022-11-27T13:51:02.471Z,8.30
2022-11-27T13:53:35.376Z,8.30
2022-11-27T13:56:04.368Z,8.30
2022-11-27T13:58:34.300Z,8.30
2022-11-27T14:01:15.163Z,8.30
2022-11-27T14:03:43.640Z,8.30
2022-11-27T14:06:19.729Z,8.30
2022-11-27T14:08:52.866Z,8.30
2022-11-27T14:11:30.800Z,8.30
2022-11-27T14:14:00.380Z,8.30
2022-11-27T14:16:32.143Z,8.30
2022-11-27T14:19:02.108Z,8.20
2022-11-27T14:21:39.266Z,8.20
2022-11-27T14:24:23.249Z,8.20
2022-11-27T14:26:51.421Z,8.10
2022-11-27T14:29:21.742Z,8.10
2022-11-27T14:31:59.684Z,8.10
2022-11-27T14:34:29.185Z,8.10
2022-11-27T14:36:57.998Z,8.00
2022-11-27T14:39:27.428Z,8.00
2022-11-27T14:42:00.072Z,7.90
2022-11-27T14:44:28.871Z,7.90
2022-11-27T14:47:02.197Z,7.80
2022-11-27T14:49:31.410Z,7.80
2022-11-27T14:52:01.668Z,7.80
2022-11-27T14:54:31.369Z,7.80
2022-11-27T14:56:59.910Z,7.70
2022-11-27T14:59:28.379Z,7.60
2022-11-27T15:02:03.261Z,7.60
2022-11-27T15:04:36.057Z,7.60
2022-11-27T15:07:07.100Z,7.50
2022-11-27T15:09:36.536Z,7.30
2022-11-27T15:12:08.987Z,7.50
2022-11-27T15:14:37.385Z,7.50
2022-11-27T15:17:08.248Z,7.40
2022-11-27T15:19:38.079Z,7.40
2022-11-27T15:22:07.570Z,7.40
2022-11-27T15:24:37.335Z,7.40
2022-11-27T15:27:15.130Z,7.30
2022-11-27T15:29:44.304Z,7.30
2022-11-27T15:32:23.229Z,7.30
2022-11-27T15:34:52.289Z,7.30
2022-11-27T15:37:23.259Z,7.30
2022-11-27T15:39:53.138Z,7.20
2022-11-27T15:42:22.783Z,7.20
2022-11-27T15:44:54.301Z,7.20
2022-11-27T15:47:25.333Z,7.10
2022-11-27T15:49:53.677Z,7.00
2022-11-27T15:52:22.340Z,7.10
2022-11-27T15:54:52.060Z,7.10
2022-11-27T15:57:20.851Z,7.10
2022-11-27T15:59:49.490Z,7.00
2022-11-27T16:02:18.621Z,7.10
2022-11-27T16:04:48.901Z,7.00
2022-11-27T16:07:17.705Z,7.00
2022-11-27T16:09:46.159Z,7.00
2022-11-27T16:12:14.925Z,7.00
2022-11-27T16:14:43.562Z,7.00
2022-11-27T16:17:12.069Z,7.00
2022-11-27T16:19:40.494Z,6.90
2022-11-27T16:22:10.621Z,7.00
2022-11-27T16:24:40.213Z,7.00
2022-11-27T16:27:08.857Z,7.00
2022-11-27T16:29:37.386Z,7.00
2022-11-27T16:32:06.353Z,7.00
2022-11-27T16:34:34.932Z,7.00
2022-11-27T16:37:04.072Z,6.90
2022-11-27T16:39:34.149Z,6.90
2022-11-27T16:42:02.780Z,6.90
2022-11-27T16:44:31.575Z,6.90
2022-11-27T16:47:00.225Z,6.90
2022-11-27T16:49:30.997Z,6.90
2022-11-27T16:52:00.378Z,6.90
2022-11-27T16:54:29.014Z,6.90
2022-11-27T16:57:00.218Z,6.90
2022-11-27T16:59:28.542Z,6.80
2022-11-27T17:01:56.939Z,6.80
2022-11-27T17:04:25.659Z,6.70
2022-11-27T17:06:54.309Z,6.70
2022-11-27T17:09:24.848Z,6.90
2022-11-27T17:11:53.804Z,6.70
2022-11-27T17:14:24.380Z,6.70
2022-11-27T17:16:52.811Z,6.70
2022-11-27T17:19:24.258Z,6.60
2022-11-27T17:21:55.597Z,6.60
2022-11-27T17:24:25.276Z,6.60
2022-11-27T17:26:55.570Z,6.60
2022-11-27T17:29:25.669Z,6.60
2022-11-27T17:31:54.495Z,6.60
2022-11-27T17:34:23.105Z,6.60
2022-11-27T17:36:57.657Z,6.50
2022-11-27T17:39:27.037Z,6.50
2022-11-27T17:41:55.606Z,6.50
2022-11-27T17:44:26.306Z,6.60
2022-11-27T17:46:54.647Z,6.60
2022-11-27T17:49:23.560Z,6.60
2022-11-27T17:51:52.399Z,6.60
2022-11-27T17:54:21.509Z,6.60
2022-11-27T17:56:51.850Z,6.60
2022-11-27T17:59:20.812Z,6.50
2022-11-27T18:01:53.447Z,6.50
2022-11-27T18:04:22.316Z,6.40
2022-11-27T18:06:51.594Z,6.40
2022-11-27T18:09:21.472Z,6.40
2022-11-27T18:11:49.990Z,6.30
2022-11-27T18:14:18.955Z,6.20
2022-11-27T18:16:47.952Z,6.20
2022-11-27T18:19:18.150Z,6.20
2022-11-27T18:21:47.116Z,6.20
2022-11-27T18:24:24.711Z,6.10
2022-11-27T18:27:09.703Z,6.00
2022-11-27T18:29:39.218Z,6.00
2022-11-27T18:32:08.511Z,5.90
2022-11-27T18:34:43.410Z,5.90
2022-11-27T18:37:12.047Z,5.90
2022-11-27T18:39:41.561Z,5.80
2022-11-27T18:42:10.476Z,5.80
2022-11-27T18:44:44.314Z,5.80
2022-11-27T18:47:13.979Z,5.70
2022-11-27T18:49:45.554Z,5.70
2022-11-27T18:52:15.287Z,5.70
2022-11-27T18:54:45.298Z,5.70
2022-11-27T18:57:14.231Z,5.70
2022-11-27T18:59:44.867Z,5.60
2022-11-27T19:02:15.999Z,5.60
2022-11-27T19:04:49.833Z,5.70
2022-11-27T19:07:20.942Z,5.60
2022-11-27T19:09:51.717Z,5.50
2022-11-27T19:12:24.701Z,5.40
2022-11-27T19:14:54.162Z,5.40
2022-11-27T19:17:28.001Z,5.40
2022-11-27T19:20:01.765Z,5.40
2022-11-27T19:22:30.068Z,5.60
2022-11-27T19:24:58.711Z,5.30
2022-11-27T19:27:27.659Z,5.40
2022-11-27T19:29:56.938Z,5.30
2022-11-27T19:32:26.557Z,5.30
2022-11-27T19:34:55.838Z,5.30
2022-11-27T19:37:34.460Z,5.30
2022-11-27T19:40:12.848Z,5.20
2022-11-27T19:42:42.080Z,5.30
2022-11-27T19:45:12.146Z,5.30
2022-11-27T19:47:40.610Z,5.30
2022-11-27T19:50:09.650Z,5.30
2022-11-27T19:53:10.566Z,5.20
2022-11-27T19:55:47.354Z,5.20
2022-11-27T20:07:32.323Z,5.10
2022-11-27T20:10:25.675Z,5.20
2022-11-27T20:13:24.567Z,5.20
2022-11-27T20:16:22.202Z,5.10
2022-11-27T20:25:18.997Z,5.20
2022-11-27T20:34:14.695Z,5.10
2022-11-27T20:42:46.662Z,5.00
2022-11-27T20:45:25.067Z,5.40
2022-11-27T20:48:05.157Z,5.10
2022-11-27T20:50:57.156Z,5.40
2022-11-27T20:56:36.632Z,4.60
2022-11-27T20:59:10.971Z,5.00
2022-11-27T21:01:50.911Z,4.90
2022-11-27T21:10:24.324Z,5.00
2022-11-27T21:16:34.834Z,4.90
2022-11-27T21:19:27.814Z,5.00
2022-11-27T21:22:40.190Z,5.00
2022-11-27T21:25:32.276Z,4.90
2022-11-27T21:28:24.448Z,4.50
2022-11-27T21:33:54.940Z,4.80
2022-11-27T21:36:43.637Z,4.70
2022-11-27T21:42:14.297Z,4.80
2022-11-27T21:45:09.209Z,4.70
2022-11-27T21:47:49.448Z,4.70
2022-11-27T21:50:46.916Z,4.70
2022-11-27T21:56:30.906Z,4.70
2022-11-27T21:59:01.600Z,4.60
2022-11-27T22:01:37.491Z,4.60
2022-11-27T22:04:26.575Z,4.90
2022-11-27T22:07:31.363Z,4.60
2022-11-27T22:10:16.408Z,4.60
2022-11-27T22:13:18.054Z,4.70
2022-11-27T22:19:01.186Z,4.70
2022-11-27T22:21:54.461Z,4.60
2022-11-27T22:27:56.867Z,4.80
2022-11-27T22:30:43.277Z,5.10
2022-11-27T22:33:34.115Z,4.70
2022-11-27T22:36:27.520Z,4.60
2022-11-27T22:39:25.731Z,4.70
2022-11-27T22:48:54.998Z,4.70
2022-11-27T22:51:45.408Z,4.70
2022-11-27T22:54:40.285Z,4.80
2022-11-27T23:10:02.397Z,4.50
2022-11-27T23:22:19.977Z,4.60
2022-11-27T23:25:23.746Z,4.40
2022-11-27T23:27:58.519Z,4.60
2022-11-27T23:38:43.103Z,4.70
2022-11-27T23:41:14.625Z,4.70
2022-11-27T23:43:43.414Z,4.70
2022-11-27T23:46:13.762Z,4.60
2022-11-27T23:48:43.254Z,4.50
2022-11-27T23:51:12.537Z,4.40
2022-11-27T23:53:41.023Z,4.40
2022-11-27T23:56:11.092Z,4.30
2022-11-27T23:58:46.424Z,4.20
